createdAt,value
2019-02-20T00:02:18.417Z,6.47
2019-02-20T00:05:26.631Z,6.37
2019-02-20T00:08:34.248Z,5.63
2019-02-20T00:11:41.835Z,6.93
2019-02-20T00:14:49.104Z,7.80
2019-02-20T00:17:57.128Z,8.87
2019-02-20T00:21:04.533Z,11.87
2019-02-20T00:24:11.814Z,8.30
2019-02-20T00:27:19.640Z,9.43
2019-02-20T00:30:26.888Z,9.63
2019-02-20T00:33:34.176Z,10.20
2019-02-20T00:36:41.338Z,9.60
2019-02-20T00:39:48.781Z,9.27
2019-02-20T00:42:55.974Z,8.50
2019-02-20T00:46:28.752Z,9.03
2019-02-20T00:49:39.455Z,9.30
2019-02-20T00:52:54.955Z,10.50
2019-02-20T00:56:02.565Z,9.10
2019-02-20T00:59:10.328Z,7.70
2019-02-20T01:02:17.721Z,10.03
2019-02-20T01:05:24.893Z,12.37
2019-02-20T01:08:32.181Z,12.87
2019-02-20T01:11:39.689Z,10.80
2019-02-20T01:14:47.020Z,11.77
2019-02-20T01:17:54.305Z,14.43
2019-02-20T01:21:01.505Z,11.17
2019-02-20T01:24:08.811Z,10.30
2019-02-20T01:27:16.094Z,9.93
2019-02-20T01:30:23.475Z,8.63
2019-02-20T01:33:30.848Z,6.17
2019-02-20T01:36:38.424Z,7.50
2019-02-20T01:39:45.822Z,8.93
2019-02-20T01:42:53.514Z,9.40
2019-02-20T01:46:01.053Z,10.73
2019-02-20T01:49:08.245Z,8.47
2019-02-20T01:52:15.734Z,12.27
2019-02-20T01:55:22.922Z,10.67
2019-02-20T01:58:30.124Z,11.07
2019-02-20T02:01:37.502Z,11.53
2019-02-20T02:04:44.789Z,14.50
2019-02-20T02:07:51.945Z,11.43
2019-02-20T02:10:59.843Z,11.93
2019-02-20T02:14:07.106Z,11.33
2019-02-20T02:17:14.555Z,10.33
2019-02-20T02:20:22.139Z,12.90
2019-02-20T02:23:29.299Z,10.40
2019-02-20T02:26:36.840Z,9.27
2019-02-20T02:29:44.332Z,8.20
2019-02-20T02:32:51.950Z,8.87
2019-02-20T02:35:59.516Z,8.57
2019-02-20T02:39:06.865Z,8.33
2019-02-20T02:42:14.124Z,9.03
2019-02-20T02:45:21.296Z,8.43
2019-02-20T02:48:28.660Z,9.03
2019-02-20T02:51:35.819Z,10.97
2019-02-20T02:54:43.218Z,9.40
2019-02-20T02:57:50.680Z,5.93
2019-02-20T03:00:57.955Z,10.03
2019-02-20T03:04:05.205Z,6.30
2019-02-20T03:07:12.549Z,7.13
2019-02-20T03:10:20.010Z,9.07
2019-02-20T03:13:27.390Z,8.47
2019-02-20T03:16:34.549Z,8.37
2019-02-20T03:19:41.990Z,10.17
2019-02-20T03:22:49.158Z,8.67
2019-02-20T03:25:56.329Z,8.83
2019-02-20T03:29:03.633Z,9.73
2019-02-20T03:32:10.840Z,7.07
2019-02-20T03:35:18.062Z,7.90
2019-02-20T03:38:30.321Z,8.13
2019-02-20T03:41:34.591Z,12.37
2019-02-20T03:44:42.238Z,9.43
2019-02-20T03:47:49.689Z,8.17
2019-02-20T03:50:56.885Z,7.53
2019-02-20T03:54:04.545Z,9.83
2019-02-20T03:57:12.144Z,8.60
2019-02-20T04:00:19.391Z,7.63
2019-02-20T04:03:26.651Z,7.73
2019-02-20T04:06:34.224Z,10.50
2019-02-20T04:09:41.481Z,8.40
2019-02-20T04:12:48.671Z,11.00
2019-02-20T04:15:56.014Z,8.90
2019-02-20T04:19:03.655Z,8.27
2019-02-20T04:22:10.930Z,7.03
2019-02-20T04:25:18.386Z,6.73
2019-02-20T04:28:25.544Z,7.27
2019-02-20T04:31:32.701Z,6.67
2019-02-20T04:34:39.856Z,7.17
2019-02-20T04:37:47.036Z,8.70
2019-02-20T04:40:54.531Z,9.00
2019-02-20T04:44:01.956Z,7.17
2019-02-20T04:47:09.425Z,7.87
2019-02-20T04:50:17.228Z,6.07
2019-02-20T04:53:24.509Z,7.90
2019-02-20T04:56:32.106Z,9.90
2019-02-20T04:59:39.589Z,6.77
2019-02-20T05:02:46.845Z,7.83
2019-02-20T05:05:54.422Z,6.83
2019-02-20T05:09:01.599Z,12.00
2019-02-20T05:12:09.095Z,8.37
2019-02-20T05:15:16.267Z,7.90
2019-02-20T05:18:23.514Z,11.07
2019-02-20T05:21:30.771Z,9.27
2019-02-20T05:25:09.435Z,7.83
2019-02-20T05:28:17.138Z,10.07
2019-02-20T05:31:24.550Z,9.33
2019-02-20T05:34:32.171Z,8.97
2019-02-20T05:37:39.835Z,8.27
2019-02-20T05:40:47.085Z,13.17
2019-02-20T05:43:54.522Z,12.97
2019-02-20T05:47:12.692Z,23.67
2019-02-20T05:50:19.983Z,12.87
2019-02-20T05:53:27.222Z,12.90
2019-02-20T05:56:34.340Z,11.03
2019-02-20T05:59:41.871Z,8.87
2019-02-20T06:02:49.084Z,10.20
2019-02-20T06:05:56.259Z,9.53
2019-02-20T06:09:04.570Z,12.23
2019-02-20T06:12:12.294Z,10.83
2019-02-20T06:15:19.555Z,13.17
2019-02-20T06:18:26.720Z,13.67
2019-02-20T06:21:34.084Z,12.50
2019-02-20T06:24:44.090Z,10.70
2019-02-20T06:27:50.878Z,10.67
2019-02-20T06:30:58.035Z,9.43
2019-02-20T06:34:06.009Z,10.07
2019-02-20T06:37:13.159Z,8.10
2019-02-20T06:40:21.066Z,8.70
2019-02-20T06:43:28.350Z,10.93
2019-02-20T06:46:35.897Z,10.93
2019-02-20T06:49:43.047Z,11.87
2019-02-20T06:52:50.197Z,10.20
2019-02-20T06:55:57.827Z,8.70
2019-02-20T06:59:04.991Z,9.77
2019-02-20T07:02:12.359Z,11.77
2019-02-20T07:05:37.763Z,9.57
2019-02-20T07:09:36.294Z,10.70
2019-02-20T07:13:15.011Z,9.73
2019-02-20T07:17:01.097Z,10.20
2019-02-20T07:21:04.396Z,12.97
2019-02-20T07:24:52.301Z,8.77
2019-02-20T07:28:45.556Z,8.90
2019-02-20T07:31:53.272Z,10.43
2019-02-20T07:35:01.000Z,9.27
2019-02-20T07:38:08.569Z,9.93
2019-02-20T07:41:15.740Z,10.33
2019-02-20T07:44:23.012Z,12.23
2019-02-20T07:47:30.326Z,9.17
2019-02-20T07:50:38.237Z,11.23
2019-02-20T07:53:45.733Z,12.53
2019-02-20T07:56:53.095Z,10.63
2019-02-20T08:00:00.511Z,9.10
2019-02-20T08:03:07.678Z,8.53
2019-02-20T08:06:15.061Z,8.40
2019-02-20T08:09:22.623Z,8.57
2019-02-20T08:12:30.100Z,8.83
2019-02-20T08:15:38.064Z,9.10
2019-02-20T08:18:45.505Z,9.83
2019-02-20T08:21:53.336Z,10.73
2019-02-20T08:25:00.601Z,10.30
2019-02-20T08:28:07.863Z,10.93
2019-02-20T08:31:15.128Z,10.50
2019-02-20T08:34:22.423Z,9.93
2019-02-20T08:37:29.859Z,10.67
2019-02-20T08:40:37.037Z,13.13
2019-02-20T08:43:44.662Z,11.80
2019-02-20T08:46:51.817Z,10.47
2019-02-20T08:49:59.550Z,9.87
2019-02-20T08:53:06.695Z,12.00
2019-02-20T08:56:14.783Z,10.67
2019-02-20T08:59:22.796Z,9.33
2019-02-20T09:02:30.577Z,9.87
2019-02-20T09:05:37.720Z,8.13
2019-02-20T09:08:45.041Z,9.90
2019-02-20T09:11:52.503Z,10.87
2019-02-20T09:14:59.738Z,14.87
2019-02-20T09:18:06.895Z,13.00
2019-02-20T09:21:14.691Z,12.57
2019-02-20T09:24:22.012Z,12.07
2019-02-20T09:27:29.730Z,15.00
2019-02-20T09:30:37.522Z,15.20
2019-02-20T09:33:44.741Z,16.13
2019-02-20T09:36:52.044Z,14.40
2019-02-20T09:40:00.004Z,14.57
2019-02-20T09:43:07.342Z,15.13
2019-02-20T09:46:14.624Z,17.53
2019-02-20T09:49:21.781Z,17.43
2019-02-20T09:52:29.129Z,15.47
2019-02-20T09:55:36.486Z,17.70
2019-02-20T09:58:44.025Z,17.50
2019-02-20T10:01:51.964Z,16.63
2019-02-20T10:04:59.268Z,18.27
2019-02-20T10:08:06.648Z,20.67
2019-02-20T10:11:13.846Z,14.67
2019-02-20T10:14:21.414Z,19.07
2019-02-20T10:17:29.106Z,19.17
2019-02-20T10:20:36.564Z,18.97
2019-02-20T10:23:45.336Z,20.57
2019-02-20T10:27:00.334Z,19.77
2019-02-20T10:30:01.825Z,20.17
2019-02-20T10:33:09.170Z,22.33
2019-02-20T10:36:17.252Z,18.97
2019-02-20T10:39:24.446Z,20.63
2019-02-20T10:42:31.605Z,17.33
2019-02-20T10:45:38.873Z,18.90
2019-02-20T10:48:46.045Z,25.17
2019-02-20T10:51:53.301Z,21.30
2019-02-20T10:55:00.505Z,20.43
2019-02-20T10:58:08.229Z,23.40
2019-02-20T11:01:15.871Z,21.33
2019-02-20T11:04:23.426Z,19.30
2019-02-20T11:07:30.573Z,24.60
2019-02-20T11:10:37.939Z,18.97
2019-02-20T11:13:45.086Z,14.17
2019-02-20T11:16:52.448Z,17.53
2019-02-20T11:19:59.669Z,16.00
2019-02-20T11:23:07.278Z,14.17
2019-02-20T11:26:18.288Z,13.53
2019-02-20T11:29:23.590Z,13.47
2019-02-20T11:32:31.041Z,15.83
2019-02-20T11:35:38.604Z,16.27
2019-02-20T11:38:46.075Z,14.87
2019-02-20T11:41:53.482Z,14.10
2019-02-20T11:45:00.632Z,16.33
2019-02-20T11:48:07.784Z,13.93
2019-02-20T11:51:15.362Z,17.30
2019-02-20T11:54:23.174Z,15.80
2019-02-20T11:57:30.661Z,15.90
2019-02-20T12:00:37.933Z,14.57
2019-02-20T12:03:45.390Z,15.30
2019-02-20T12:06:52.939Z,18.77
2019-02-20T12:10:00.342Z,20.50
2019-02-20T12:13:07.814Z,13.03
2019-02-20T12:16:14.994Z,16.37
2019-02-20T12:19:23.628Z,17.73
2019-02-20T12:22:31.000Z,17.47
2019-02-20T12:25:38.314Z,17.93
2019-02-20T12:28:47.210Z,15.30
2019-02-20T12:31:54.936Z,13.67
2019-02-20T12:35:02.315Z,10.73
2019-02-20T12:38:09.580Z,10.67
2019-02-20T12:41:16.742Z,13.73
2019-02-20T12:44:24.167Z,13.10
2019-02-20T12:47:31.420Z,11.90
2019-02-20T12:50:38.668Z,12.07
2019-02-20T12:53:45.958Z,13.43
2019-02-20T12:56:53.242Z,13.63
2019-02-20T13:00:00.402Z,17.73
2019-02-20T13:03:08.089Z,19.83
2019-02-20T13:06:15.570Z,15.50
2019-02-20T13:09:23.598Z,20.47
2019-02-20T13:12:31.282Z,17.73
2019-02-20T13:15:38.773Z,25.90
2019-02-20T13:18:46.170Z,18.93
2019-02-20T13:21:53.331Z,17.70
2019-02-20T13:25:00.958Z,16.80
2019-02-20T13:28:08.109Z,16.80
2019-02-20T13:31:15.707Z,18.77
2019-02-20T13:34:42.860Z,18.77
2019-02-20T13:37:50.038Z,18.33
2019-02-20T13:40:57.712Z,23.90
2019-02-20T13:44:06.031Z,19.53
2019-02-20T13:47:13.754Z,24.60
2019-02-20T13:50:21.864Z,18.87
2019-02-20T13:53:30.130Z,23.03
2019-02-20T13:56:38.274Z,19.20
2019-02-20T13:59:45.879Z,19.73
2019-02-20T14:02:53.346Z,21.10
2019-02-20T14:06:01.002Z,19.40
2019-02-20T14:09:08.739Z,19.00
2019-02-20T14:12:15.995Z,20.83
2019-02-20T14:15:23.437Z,20.83
2019-02-20T14:18:30.836Z,23.27
2019-02-20T14:21:38.197Z,22.93
2019-02-20T14:24:46.757Z,21.23
2019-02-20T14:27:54.238Z,18.13
2019-02-20T14:31:02.853Z,25.47
2019-02-20T14:34:10.050Z,22.83
2019-02-20T14:37:17.759Z,20.50
2019-02-20T14:40:25.335Z,24.27
2019-02-20T14:43:32.739Z,17.70
2019-02-20T14:46:39.926Z,19.87
2019-02-20T14:49:47.952Z,20.93
2019-02-20T14:52:55.739Z,22.50
2019-02-20T14:56:03.149Z,21.93
2019-02-20T14:59:10.766Z,21.13
2019-02-20T15:02:18.280Z,20.13
2019-02-20T15:05:25.823Z,20.70
2019-02-20T15:08:33.092Z,19.20
2019-02-20T15:11:40.957Z,21.60
2019-02-20T15:14:48.392Z,19.70
2019-02-20T15:17:55.663Z,18.03
2019-02-20T15:21:03.120Z,22.97
2019-02-20T15:24:10.635Z,18.50
2019-02-20T15:27:19.191Z,18.67
2019-02-20T15:30:26.922Z,23.20
2019-02-20T15:33:34.601Z,20.03
2019-02-20T15:36:42.541Z,20.73
2019-02-20T15:39:50.107Z,20.77
2019-02-20T15:42:57.738Z,17.60
2019-02-20T15:46:05.833Z,18.63
2019-02-20T15:49:13.475Z,21.23
2019-02-20T15:52:20.644Z,21.90
2019-02-20T15:55:28.471Z,19.03
2019-02-20T15:58:36.224Z,23.87
2019-02-20T16:01:43.825Z,20.03
2019-02-20T16:04:51.494Z,21.30
2019-02-20T16:07:59.426Z,19.17
2019-02-20T16:11:06.871Z,19.73
2019-02-20T16:14:14.341Z,22.50
2019-02-20T16:17:22.434Z,18.93
2019-02-20T16:20:29.947Z,22.50
2019-02-20T16:23:37.335Z,20.70
2019-02-20T16:26:45.041Z,21.00
2019-02-20T16:29:52.771Z,24.23
2019-02-20T16:33:00.869Z,21.37
2019-02-20T16:36:08.504Z,20.43
2019-02-20T16:39:16.846Z,20.60
2019-02-20T16:42:24.958Z,20.60
2019-02-20T16:45:32.657Z,28.53
2019-02-20T16:48:41.110Z,26.67
2019-02-20T16:51:48.526Z,27.10
2019-02-20T16:54:55.907Z,55.73
2019-02-20T16:58:04.044Z,41.87
2019-02-20T17:01:11.917Z,41.43
2019-02-20T17:04:19.261Z,33.33
2019-02-20T17:07:26.629Z,26.13
2019-02-20T17:10:34.372Z,56.47
2019-02-20T17:13:42.189Z,57.43
2019-02-20T17:16:49.620Z,62.80
2019-02-20T17:19:57.633Z,67.07
2019-02-20T17:23:05.900Z,55.60
2019-02-20T17:26:13.483Z,25.43
2019-02-20T17:29:21.092Z,19.30
2019-02-20T17:32:28.272Z,15.30
2019-02-20T17:35:35.873Z,21.93
2019-02-20T17:38:43.679Z,18.47
2019-02-20T17:41:50.862Z,19.10
2019-02-20T17:44:58.517Z,18.90
2019-02-20T17:48:05.982Z,26.67
2019-02-20T17:51:13.589Z,29.87
2019-02-20T17:54:20.770Z,25.90
2019-02-20T17:57:27.947Z,55.43
2019-02-20T18:00:36.892Z,48.17
2019-02-20T18:03:44.686Z,48.23
2019-02-20T18:06:51.964Z,34.43
2019-02-20T18:09:59.119Z,27.17
2019-02-20T18:13:06.399Z,27.47
2019-02-20T18:16:13.939Z,20.57
2019-02-20T18:19:21.121Z,18.70
2019-02-20T18:22:28.289Z,21.20
2019-02-20T18:25:35.536Z,15.60
2019-02-20T18:28:42.715Z,19.60
2019-02-20T18:31:49.888Z,21.07
2019-02-20T18:34:57.451Z,26.10
2019-02-20T18:38:04.875Z,21.43
2019-02-20T18:41:14.509Z,25.00
2019-02-20T18:44:22.024Z,23.10
2019-02-20T18:47:29.295Z,21.83
2019-02-20T18:50:36.464Z,28.83
2019-02-20T18:53:45.029Z,36.43
2019-02-20T18:56:52.672Z,30.97
2019-02-20T18:59:59.958Z,25.03
2019-02-20T19:03:07.553Z,30.27
2019-02-20T19:06:15.055Z,27.40
2019-02-20T19:09:31.479Z,25.40
2019-02-20T19:13:20.146Z,25.63
2019-02-20T19:17:35.643Z,24.13
2019-02-20T19:21:47.131Z,25.50
2019-02-20T19:25:46.336Z,17.87
2019-02-20T19:29:14.230Z,24.80
2019-02-20T19:33:28.242Z,19.50
2019-02-20T19:37:51.138Z,22.37
2019-02-20T19:42:00.786Z,21.63
2019-02-20T19:45:53.997Z,19.00
2019-02-20T19:50:01.852Z,20.60
2019-02-20T19:53:36.873Z,23.70
2019-02-20T19:57:37.834Z,24.97
2019-02-20T20:00:59.975Z,25.50
2019-02-20T20:05:01.132Z,27.00
2019-02-20T20:09:11.632Z,18.17
2019-02-20T20:13:05.950Z,17.97
2019-02-20T20:17:17.794Z,19.40
2019-02-20T20:21:19.880Z,20.37
2019-02-20T20:25:07.175Z,17.13
2019-02-20T20:28:43.840Z,16.90
2019-02-20T20:32:34.670Z,18.47
2019-02-20T20:36:24.058Z,18.43
2019-02-20T20:40:26.259Z,19.37
2019-02-20T20:44:31.910Z,20.70
2019-02-20T20:48:24.622Z,18.30
2019-02-20T20:52:30.409Z,17.47
2019-02-20T20:56:46.004Z,20.83
2019-02-20T21:03:21.672Z,22.37
2019-02-20T21:06:59.249Z,25.93
2019-02-20T21:10:54.934Z,20.23
2019-02-20T21:14:48.174Z,26.27
2019-02-20T21:18:41.939Z,19.60
2019-02-20T21:22:54.944Z,18.63
2019-02-20T21:26:44.578Z,16.00
2019-02-20T21:30:55.393Z,19.60
2019-02-20T21:34:59.833Z,18.17
2019-02-20T21:38:51.592Z,14.93
2019-02-20T21:42:44.850Z,16.47
2019-02-20T21:46:46.729Z,14.87
2019-02-20T21:50:27.961Z,14.43
2019-02-20T21:54:28.226Z,15.57
2019-02-20T21:58:09.180Z,13.13
2019-02-20T22:01:52.463Z,13.73
2019-02-20T22:06:12.657Z,17.93
2019-02-20T22:10:16.847Z,14.13
2019-02-20T22:13:59.691Z,19.87
2019-02-20T22:18:01.782Z,14.20
2019-02-20T22:22:10.729Z,14.27
2019-02-20T22:25:54.047Z,15.57
2019-02-20T22:30:10.249Z,17.20
2019-02-20T22:33:40.462Z,13.10
2019-02-20T22:37:50.421Z,14.63
2019-02-20T22:41:32.351Z,17.00
2019-02-20T22:45:19.290Z,14.83
2019-02-20T22:49:20.093Z,19.00
2019-02-20T22:52:54.553Z,14.47
2019-02-20T22:57:13.869Z,11.90
2019-02-20T23:01:06.257Z,13.63
2019-02-20T23:05:04.153Z,17.40
2019-02-20T23:08:33.394Z,12.60
2019-02-20T23:12:13.735Z,14.27
2019-02-20T23:15:21.841Z,20.10
2019-02-20T23:18:29.312Z,16.30
2019-02-20T23:21:36.599Z,14.30
2019-02-20T23:24:44.743Z,15.53
2019-02-20T23:27:52.204Z,16.43
2019-02-20T23:30:59.618Z,13.23
2019-02-20T23:34:06.915Z,12.93
2019-02-20T23:37:14.503Z,16.23
2019-02-20T23:40:21.666Z,14.00
2019-02-20T23:43:28.904Z,16.77
2019-02-20T23:46:36.166Z,15.77
2019-02-20T23:49:43.330Z,16.10
2019-02-20T23:52:50.757Z,16.73
2019-02-20T23:55:58.353Z,17.97
2019-02-20T23:59:05.507Z,15.03
